Time;durP1;ratioP1;P1;durP2;ratioP2;P2;SDS_P1;SDS_P2;PMS_P1;PMS_P2;Temp;Humidity;BMP_temperature;BMP_pressure;BME280_temperature;BME280_humidity;BME280_pressure;Samples;Min_cycle;Max_cycle;Signal;HPM_P1;HPM_P2
2021/04/05 00:00:24;;;;;;;33.92;16.65;;;10.30;55.50;;;;;;5094164;28;20070;-66
2021/04/05 00:02:51;;;;;;;39.45;18.13;;;;;;;;;;5112074;28;20516;-67
2021/04/05 00:05:21;;;;;;;38.80;17.27;;;10.40;55.10;;;;;;5112228;28;20039;-66
2021/04/05 00:07:49;;;;;;;37.42;17.42;;;10.20;55.60;;;;;;5093507;28;20043;-67
2021/04/05 00:10:19;;;;;;;36.90;17.30;;;10.10;55.80;;;;;;5112194;28;20035;-66
2021/04/05 00:12:47;;;;;;;42.03;18.85;;;;;;;;;;5093608;28;20051;-66
2021/04/05 00:15:14;;;;;;;33.45;16.33;;;10.20;55.90;;;;;;5111952;28;20039;-67
2021/04/05 00:17:42;;;;;;;39.22;16.17;;;;;;;;;;5114883;28;20092;-68
2021/04/05 00:20:16;;;;;;;28.58;15.05;;;10.10;55.90;;;;;;5100690;28;20451;-67
2021/04/05 00:22:44;;;;;;;30.25;14.95;;;;;;;;;;5100289;28;20070;-66
2021/04/05 00:25:12;;;;;;;35.25;16.15;;;;;;;;;;5117871;28;20043;-65
2021/04/05 00:27:40;;;;;;;37.08;16.10;;;10.10;56.10;;;;;;5098555;28;20063;-65
2021/04/05 00:30:26;;;;;;;38.75;16.25;;;10.10;56.30;;;;;;5083405;28;20043;-67
2021/04/05 00:32:53;;;;;;;33.28;15.77;;;;;;;;;;5106625;28;20489;-66
2021/04/05 00:35:25;;;;;;;30.35;14.52;;;10.20;55.90;;;;;;5100545;28;20046;-68
2021/04/05 00:37:54;;;;;;;41.50;16.33;;;10.10;56.30;;;;;;5116215;28;20056;-67
2021/04/05 00:40:29;;;;;;;30.00;15.02;;;10.20;56.10;;;;;;5103084;28;20402;-66
2021/04/05 00:42:57;;;;;;;35.47;16.42;;;;;;;;;;5114190;28;20044;-66
2021/04/05 00:45:24;;;;;;;32.42;15.80;;;;;;;;;;5118497;28;20040;-65
2021/04/05 00:47:52;;;;;;;34.10;15.38;;;10.30;55.60;;;;;;5113790;28;20040;-66
2021/04/05 00:50:29;;;;;;;30.38;14.02;;;10.40;55.40;;;;;;5118036;28;20031;-67
2021/04/05 00:52:59;;;;;;;34.67;15.15;;;;;;;;;;5118518;28;20039;-66
2021/04/05 00:55:26;;;;;;;33.42;14.93;;;;;;;;;;5090986;28;20097;-65
2021/04/05 00:57:55;;;;;;;36.40;16.70;;;10.40;55.60;;;;;;5118483;28;20052;-67
2021/04/05 01:00:42;;;;;;;36.92;14.63;;;10.40;55.50;;;;;;5118608;28;20050;-67
2021/04/05 01:03:12;;;;;;;32.60;16.27;;;10.50;55.60;;;;;;5105963;28;20043;-67
2021/04/05 01:05:40;;;;;;;42.90;15.25;;;;;;;;;;5103715;28;20510;-67
2021/04/05 01:08:18;;;;;;;34.85;15.02;;;10.20;55.90;;;;;;5092481;28;20122;-65
2021/04/05 01:10:45;;;;;;;33.97;15.20;;;;;;;;;;5087770;28;20535;-66
2021/04/05 01:13:16;;;;;;;36.03;15.32;;;10.20;55.90;;;;;;5096735;28;20040;-68
2021/04/05 01:15:44;;;;;;;35.67;15.80;;;10.20;56.00;;;;;;5099371;28;20039;-67
2021/04/05 01:18:14;;;;;;;32.75;15.68;;;10.30;55.80;;;;;;5117947;28;20818;-69
2021/04/05 01:20:41;;;;;;;38.30;16.10;;;;;;;;;;5118204;28;20097;-67
2021/04/05 01:23:08;;;;;;;41.50;15.98;;;;;;;;;;5118016;27;20052;-66
2021/04/05 01:25:35;;;;;;;29.60;14.95;;;;;;;;;;5117981;28;20567;-68
2021/04/05 01:28:02;;;;;;;36.97;16.17;;;;;;;;;;5118104;28;20027;-67
2021/04/05 01:30:39;;;;;;;33.40;14.90;;;10.10;56.30;;;;;;5097718;28;20052;-66
2021/04/05 01:33:06;;;;;;;37.05;15.45;;;;;;;;;;5105936;28;20039;-67
2021/04/05 01:35:56;;;;;;;44.05;16.25;;;10.30;56.10;;;;;;5084081;28;20165;-65
2021/04/05 01:38:30;;;;;;;29.80;14.60;;;10.30;55.90;;;;;;5083876;28;20097;-68
2021/04/05 01:41:21;;;;;;;28.67;14.02;;;10.20;56.10;;;;;;5094120;28;20056;-67
2021/04/05 01:43:48;;;;;;;31.88;14.32;;;;;;;;;;5093989;28;20051;-66
2021/04/05 01:46:17;;;;;;;34.92;15.63;;;10.40;55.30;;;;;;5094672;28;20044;-66
2021/04/05 01:48:44;;;;;;;32.30;15.57;;;;;;;;;;5092660;28;20040;-67
2021/04/05 01:51:19;;;;;;;31.35;15.77;;;10.40;55.80;;;;;;5094041;28;20077;-67
2021/04/05 01:53:47;;;;;;;33.92;15.30;;;10.40;55.60;;;;;;5094483;28;20044;-67
2021/04/05 01:56:17;;;;;;;45.70;16.42;;;10.40;55.70;;;;;;5094497;28;20043;-67
2021/04/05 01:58:45;;;;;;;39.70;15.95;;;10.20;55.90;;;;;;5094139;28;20044;-65
2021/04/05 02:01:18;;;;;;;33.53;13.73;;;10.20;56.40;;;;;;5093156;28;20521;-67
2021/04/05 02:03:46;;;;;;;40.05;15.70;;;10.20;56.70;;;;;;5093452;28;20040;-65
2021/04/05 02:06:20;;;;;;;42.92;15.50;;;10.20;56.50;;;;;;5093928;28;20040;-65
2021/04/05 02:08:47;;;;;;;31.58;15.32;;;;;;;;;;5093977;28;20123;-67
2021/04/05 02:11:17;;;;;;;38.58;16.33;;;10.40;56.00;;;;;;5093690;28;20115;-63
2021/04/05 02:13:45;;;;;;;41.47;14.48;;;10.50;55.70;;;;;;5093462;28;20047;-65
2021/04/05 02:16:14;;;;;;;33.20;15.23;;;10.60;55.40;;;;;;5075550;28;20525;-67
2021/04/05 02:18:41;;;;;;;40.42;15.35;;;;;;;;;;5093299;28;20341;-66
2021/04/05 02:21:16;;;;;;;39.28;14.90;;;10.70;55.20;;;;;;5091848;28;20572;-69
2021/04/05 02:23:45;;;;;;;39.47;15.77;;;10.70;55.50;;;;;;5092424;28;20048;-67
2021/04/05 02:26:20;;;;;;;34.88;15.15;;;10.50;56.00;;;;;;5092302;28;20083;-65
2021/04/05 02:28:49;;;;;;;36.17;15.38;;;10.50;56.30;;;;;;5092549;28;20068;-66
2021/04/05 02:31:17;;;;;;;37.67;14.93;;;10.50;56.30;;;;;;5091464;28;20055;-66
2021/04/05 02:33:49;;;;;;;27.35;14.43;;;10.60;56.20;;;;;;5089804;28;20047;-66
2021/04/05 02:36:18;;;;;;;34.33;15.00;;;10.60;56.40;;;;;;5082795;28;20402;-68
2021/04/05 02:38:51;;;;;;;41.97;15.43;;;10.60;56.40;;;;;;5105492;28;20109;-68
2021/04/05 02:41:19;;;;;;;39.95;14.63;;;10.50;56.60;;;;;;5096661;28;20050;-68
2021/04/05 02:43:48;;;;;;;35.67;14.32;;;;;;;;;;5112210;28;20054;-68
2021/04/05 02:46:21;;;;;;;37.00;14.27;;;10.70;56.40;;;;;;5095753;28;20062;-66
2021/04/05 02:48:49;;;;;;;45.42;16.02;;;10.90;56.20;;;;;;5114019;28;20112;-65
2021/04/05 02:51:17;;;;;;;43.35;14.30;;;;;;;;;;5095396;28;20052;-67
2021/04/05 02:53:50;;;;;;;31.85;15.15;;;10.80;56.90;;;;;;5103294;28;20117;-66
2021/04/05 02:56:18;;;;;;;32.95;14.23;;;10.90;56.40;;;;;;5110086;28;20074;-69
2021/04/05 02:58:51;;;;;;;43.42;16.15;;;10.90;56.50;;;;;;5107015;28;20052;-68
2021/04/05 03:01:19;;;;;;;40.83;15.20;;;10.90;56.50;;;;;;5094890;28;20062;-68
2021/04/05 03:03:47;;;;;;;40.95;16.35;;;11.00;56.40;;;;;;5095558;28;20047;-66
2021/04/05 03:06:19;;;;;;;36.25;16.45;;;11.00;56.30;;;;;;5095047;28;20581;-67
2021/04/05 03:08:46;;;;;;;44.13;16.23;;;;;;;;;;5113315;28;20077;-68
2021/04/05 03:11:20;;;;;;;42.92;15.35;;;10.90;57.00;;;;;;5113289;28;20493;-65
2021/04/05 03:13:48;;;;;;;43.38;14.63;;;11.00;56.80;;;;;;5067170;28;20046;-67
2021/04/05 03:16:22;;;;;;;36.15;14.80;;;10.80;57.30;;;;;;5113264;28;20529;-67
2021/04/05 03:18:49;;;;;;;40.20;15.70;;;;;;;;;;5107647;28;20074;-66
2021/04/05 03:21:17;;;;;;;40.05;15.88;;;10.80;57.60;;;;;;5073450;28;20052;-67
2021/04/05 03:23:45;;;;;;;34.38;14.38;;;10.80;57.80;;;;;;5111158;28;20073;-67
2021/04/05 03:26:12;;;;;;;35.60;15.55;;;;;;;;;;5113493;28;20048;-68
2021/04/05 03:28:39;;;;;;;40.53;16.27;;;10.40;59.40;;;;;;5100006;28;20051;-65
2021/04/05 03:31:20;;;;;;;40.72;15.30;;;10.40;59.60;;;;;;5103170;28;20043;-65
2021/04/05 03:33:51;;;;;;;43.47;16.10;;;10.50;59.90;;;;;;5094888;28;20434;-71
2021/04/05 03:36:48;;;;;;;31.25;15.15;;;10.40;60.00;;;;;;5112715;28;20047;-67
2021/04/05 03:39:16;;;;;;;43.20;17.27;;;10.40;59.90;;;;;;5112551;28;20049;-66
2021/04/05 03:42:01;;;;;;;41.08;15.43;;;10.50;59.90;;;;;;5112761;28;20097;-67
2021/04/05 03:44:55;;;;;;;42.70;16.23;;;10.60;60.00;;;;;;5111642;28;20070;-65
2021/04/05 03:47:22;;;;;;;46.95;16.92;;;;;;;;;;5112449;28;20043;-66
2021/04/05 03:49:53;;;;;;;;;;;10.50;60.30;;;;;;5112669;28;20040;-68
2021/04/05 03:52:26;;;;;;;49.72;16.42;;;10.70;59.70;;;;;;5111866;28;19934;-67
2021/04/05 03:54:58;;;;;;;38.05;14.25;;;10.80;59.70;;;;;;5109483;28;20042;-63
2021/04/05 03:57:40;;;;;;;42.58;17.13;;;10.70;60.20;;;;;;5084134;28;20050;-66
2021/04/05 04:00:12;;;;;;;37.40;15.90;;;10.70;60.60;;;;;;5107338;28;20039;-67
2021/04/05 04:02:46;;;;;;;40.35;15.95;;;10.60;60.70;;;;;;5107617;28;20135;-68
2021/04/05 04:05:23;;;;;;;53.35;17.80;;;10.70;60.70;;;;;;5111755;28;20040;-67
2021/04/05 04:08:02;;;;;;;46.78;17.88;;;;;;;;;;5093754;28;20163;-65
2021/04/05 04:10:32;;;;;;;42.55;16.67;;;10.90;60.30;;;;;;5093958;28;20043;-69
2021/04/05 04:13:04;;;;;;;46.30;16.77;;;10.90;60.40;;;;;;5111396;28;20039;-68
2021/04/05 04:15:34;;;;;;;38.67;16.63;;;10.90;60.20;;;;;;5111552;28;20048;-65
2021/04/05 04:18:05;;;;;;;49.55;16.90;;;11.00;59.90;;;;;;5093975;28;20497;-67
2021/04/05 04:20:33;;;;;;;39.00;16.55;;;11.00;59.90;;;;;;5103931;28;20055;-67
2021/04/05 04:23:00;;;;;;;41.47;17.63;;;;;;;;;;5111734;28;20138;-68
2021/04/05 04:25:27;;;;;;;42.75;16.88;;;;;;;;;;5111991;28;20039;-66
2021/04/05 04:27:55;;;;;;;46.58;17.67;;;;;;;;;;5111464;28;20051;-68
2021/04/05 04:30:33;;;;;;;42.13;17.30;;;10.90;61.00;;;;;;5111636;28;20047;-66
2021/04/05 04:33:09;;;;;;;50.08;17.10;;;10.90;60.70;;;;;;5098937;28;20048;-66
2021/04/05 04:35:38;;;;;;;41.75;16.75;;;11.10;60.50;;;;;;5101895;28;20127;-64
2021/04/05 04:38:06;;;;;;;48.58;17.33;;;11.10;60.50;;;;;;5097902;28;20040;-67
2021/04/05 04:40:34;;;;;;;50.88;18.80;;;11.20;60.70;;;;;;5097761;28;20048;-66
2021/04/05 04:43:06;;;;;;;46.85;17.73;;;11.30;60.50;;;;;;5091692;28;20059;-66
2021/04/05 04:45:34;;;;;;;51.92;18.30;;;11.20;61.00;;;;;;5093272;28;20049;-66
2021/04/05 04:48:01;;;;;;;54.33;17.77;;;;;;;;;;5093338;28;20044;-67
2021/04/05 04:50:28;;;;;;;47.95;19.15;;;;;;;;;;5101523;28;20064;-68
2021/04/05 04:52:56;;;;;;;41.67;17.55;;;11.10;61.60;;;;;;5107445;28;20070;-66
2021/04/05 04:55:25;;;;;;;37.60;17.50;;;11.10;62.10;;;;;;5092919;28;20559;-65
2021/04/05 04:58:00;;;;;;;64.25;19.65;;;11.30;61.70;;;;;;5111306;28;20163;-66
2021/04/05 05:00:28;;;;;;;59.97;18.58;;;11.40;61.20;;;;;;5111380;28;20047;-64
2021/04/05 05:02:56;;;;;;;53.05;18.52;;;11.30;61.40;;;;;;5111310;28;20048;-67
2021/04/05 05:05:26;;;;;;;52.67;18.90;;;11.20;61.70;;;;;;5113949;28;20127;-68
2021/04/05 05:07:54;;;;;;;48.88;18.63;;;;;;;;;;5111073;28;20060;-66
2021/04/05 05:10:21;;;;;;;52.67;18.77;;;;;;;;;;5114503;28;20036;-66
2021/04/05 05:12:49;;;;;;;59.20;19.52;;;;;;;;;;5096766;28;20059;-65
2021/04/05 05:15:16;;;;;;;62.33;19.30;;;;;;;;;;5114583;28;20069;-66
2021/04/05 05:17:44;;;;;;;51.15;17.65;;;11.40;61.60;;;;;;5115420;28;20054;-68
2021/04/05 05:20:13;;;;;;;48.58;18.38;;;11.50;61.30;;;;;;5115082;28;20039;-67
2021/04/05 05:22:43;;;;;;;48.67;17.25;;;11.40;61.30;;;;;;5114856;28;20126;-66
2021/04/05 05:25:14;;;;;;;48.13;18.88;;;11.60;61.30;;;;;;5114485;28;20044;-67
2021/04/05 05:27:43;;;;;;;54.03;18.33;;;11.70;60.80;;;;;;5115086;28;20040;-65
2021/04/05 05:30:20;;;;;;;53.60;17.58;;;11.70;60.70;;;;;;5095683;28;20051;-67
2021/04/05 05:32:49;;;;;;;63.20;18.80;;;11.60;60.90;;;;;;5103473;28;20050;-64
2021/04/05 05:35:17;;;;;;;42.15;17.92;;;11.70;61.10;;;;;;5114821;28;20047;-67
2021/04/05 05:37:44;;;;;;;46.80;17.85;;;11.40;61.30;;;;;;5114787;28;20063;-66
2021/04/05 05:40:19;;;;;;;48.55;18.58;;;11.60;61.60;;;;;;5114781;28;20035;-66
2021/04/05 05:42:54;;;;;;;48.97;18.45;;;11.60;61.40;;;;;;5114479;28;20055;-68
2021/04/05 05:45:37;;;;;;;49.88;19.65;;;11.60;61.30;;;;;;5102451;28;20055;-66
2021/04/05 05:48:05;;;;;;;43.85;17.77;;;11.60;61.30;;;;;;5106361;28;20047;-68
2021/04/05 05:50:48;;;;;;;47.03;17.90;;;;;;;;;;5096319;28;20039;-66
2021/04/05 05:53:52;;;;;;;51.45;17.40;;;11.60;61.70;;;;;;5095318;28;20086;-65
2021/04/05 05:56:31;;;;;;;43.35;19.40;;;11.60;61.60;;;;;;5114563;28;20061;-66
2021/04/05 05:59:22;;;;;;;42.03;17.00;;;11.70;61.40;;;;;;5112828;28;20047;-66
2021/04/05 06:01:49;;;;;;;41.08;16.92;;;;;;;;;;5090976;28;20056;-67
2021/04/05 06:04:39;;;;;;;39.13;15.07;;;11.80;61.00;;;;;;5105743;28;20050;-68
2021/04/05 06:07:15;;;;;;;34.47;15.95;;;11.70;61.30;;;;;;5075526;28;20131;-66
2021/04/05 06:10:22;;;;;;;46.92;16.98;;;11.80;61.20;;;;;;5107484;28;20063;-68
2021/04/05 06:13:03;;;;;;;40.00;15.68;;;11.80;61.40;;;;;;5113761;28;20058;-68
2021/04/05 06:15:31;;;;;;;43.47;15.95;;;11.80;61.90;;;;;;5113214;28;20401;-67
2021/04/05 06:18:02;;;;;;;35.15;16.20;;;11.60;62.70;;;;;;5114286;28;20100;-65
2021/04/05 06:20:40;;;;;;;40.60;16.63;;;11.60;63.80;;;;;;5113922;28;20032;-69
2021/04/05 06:23:31;;;;;;;17.45;5.32;;;10.50;60.90;;;;;;5112105;28;20138;-69
2021/04/05 06:26:39;;;;;;;9.75;4.75;;;9.90;62.70;;;;;;5095984;28;20085;-68
2021/04/05 06:29:32;;;;;;;10.00;4.43;;;9.80;64.60;;;;;;5085956;28;20048;-67
2021/04/05 06:32:17;;;;;;;8.55;4.40;;;9.70;64.40;;;;;;5094738;28;20448;-68
2021/04/05 06:35:08;;;;;;;10.67;3.63;;;9.60;65.00;;;;;;4753385;28;10000448;-68
2021/04/05 06:37:46;;;;;;;11.05;4.03;;;9.50;64.30;;;;;;5103995;28;20047;-69
2021/04/05 06:40:16;;;;;;;8.70;3.97;;;9.30;64.70;;;;;;5111687;28;20043;-68
2021/04/05 06:42:51;;;;;;;10.98;3.72;;;9.10;65.40;;;;;;5094654;28;20093;-68
2021/04/05 06:45:23;;;;;;;12.65;4.35;;;9.00;66.30;;;;;;5100544;28;20040;-70
2021/04/05 06:48:27;;;;;;;9.70;4.15;;;8.80;67.30;;;;;;5110895;28;20047;-70
2021/04/05 06:51:50;;;;;;;11.20;4.43;;;8.90;67.40;;;;;;5110817;28;20051;-69
2021/04/05 06:54:46;;;;;;;12.95;4.47;;;8.80;67.80;;;;;;4975318;28;20160;-69
2021/04/05 06:57:29;;;;;;;11.05;4.20;;;9.10;67.10;;;;;;4984463;28;20038;-69
2021/04/05 06:59:57;;;;;;;18.63;4.70;;;9.50;66.10;;;;;;4980421;28;20050;-69
2021/04/05 07:02:45;;;;;;;11.65;3.95;;;9.60;64.60;;;;;;4986161;28;20058;-70
2021/04/05 07:05:35;;;;;;;16.85;4.90;;;9.40;65.60;;;;;;4977398;28;20097;-71
2021/04/05 07:08:14;;;;;;;12.93;4.45;;;9.20;66.10;;;;;;4988296;28;20125;-68
2021/04/05 07:11:13;;;;;;;14.23;4.35;;;8.90;66.70;;;;;;4975932;28;20047;-67
2021/04/05 07:13:51;;;;;;;14.93;4.97;;;9.20;66.60;;;;;;4979887;28;20043;-69
2021/04/05 07:16:39;;;;;;;12.00;4.93;;;9.40;65.80;;;;;;4983631;28;20066;-69
2021/04/05 07:19:28;;;;;;;17.25;4.97;;;9.50;65.80;;;;;;4986049;28;20062;-71
2021/04/05 07:22:21;;;;;;;18.60;5.30;;;9.40;66.20;;;;;;4979140;28;20532;-69
2021/04/05 07:25:12;;;;;;;17.65;4.68;;;9.50;66.40;;;;;;5022415;28;20086;-69
2021/04/05 07:27:51;;;;;;;12.50;5.05;;;9.70;66.00;;;;;;5077658;28;20059;-69
2021/04/05 07:30:24;;;;;;;9.43;4.45;;;9.70;65.30;;;;;;5094899;28;20071;-71
2021/04/05 07:33:22;;;;;;;12.57;4.43;;;9.50;65.10;;;;;;5094337;28;20075;-70
2021/04/05 07:36:18;;;;;;;15.70;4.60;;;9.30;65.70;;;;;;5102662;28;20052;-69
2021/04/05 07:39:07;;;;;;;17.58;4.47;;;9.00;66.60;;;;;;5092869;28;20188;-69
2021/04/05 07:41:36;;;;;;;12.23;4.60;;;8.90;65.50;;;;;;5090391;28;20506;-71
2021/04/05 07:44:03;;;;;;;6.80;3.83;;;;;;;;;;5068207;28;20651;-71
2021/04/05 07:46:35;;;;;;;;;;;8.30;66.80;;;;;;5087923;28;20044;-70
2021/04/05 07:49:14;;;;;;;9.65;3.58;;;7.70;69.70;;;;;;5075167;28;19963;-67
2021/04/05 07:51:41;;;;;;;11.20;4.35;;;;;;;;;;5090622;28;20040;-68
2021/04/05 07:54:09;;;;;;;13.90;3.75;;;8.20;65.10;;;;;;5093319;28;20044;-70
2021/04/05 07:57:06;;;;;;;10.32;3.95;;;7.50;67.10;;;;;;5104291;28;20032;-69
2021/04/05 07:59:33;;;;;;;15.00;4.47;;;;;;;;;;5081034;28;20433;-70
2021/04/05 08:02:27;;;;;;;13.20;4.40;;;7.20;65.10;;;;;;5072565;28;20043;-70
2021/04/05 08:04:55;;;;;;;19.02;4.25;;;;;;;;;;5066018;28;20222;-70
2021/04/05 08:07:31;;;;;;;;;;;7.00;64.60;;;;;;5068953;28;20052;-70
2021/04/05 08:10:07;;;;;;;16.48;4.18;;;7.10;65.10;;;;;;5051155;28;20153;-68
2021/04/05 08:12:52;;;;;;;12.00;4.30;;;7.20;64.60;;;;;;5069038;28;20044;-69
2021/04/05 08:15:54;;;;;;;19.17;5.05;;;7.30;64.20;;;;;;5066687;28;20096;-70
2021/04/05 08:18:36;;;;;;;10.77;4.20;;;7.60;62.70;;;;;;5065322;28;20060;-69
2021/04/05 08:21:05;;;;;;;22.10;4.65;;;;;;;;;;5062256;28;20114;-66
2021/04/05 08:23:48;;;;;;;;;;;7.60;63.30;;;;;;5070304;28;20060;-68
2021/04/05 08:27:06;;;;;;;13.00;5.15;;;7.30;62.10;;;;;;5073078;28;19948;-67
2021/04/05 08:29:33;;;;;;;15.45;4.40;;;;;;;;;;5066375;28;20137;-69
2021/04/05 08:32:22;;;;;;;13.88;4.43;;;7.30;63.00;;;;;;5071145;28;20557;-68
2021/04/05 08:35:17;;;;;;;21.10;4.70;;;7.20;61.40;;;;;;5063988;28;20079;-68
2021/04/05 08:37:55;;;;;;;15.43;4.65;;;6.80;61.00;;;;;;5070123;28;20052;-70
2021/04/05 08:40:28;;;;;;;21.70;5.72;;;6.50;62.00;;;;;;5074967;28;20044;-69
2021/04/05 08:43:32;;;;;;;20.35;4.57;;;6.60;61.90;;;;;;5101417;28;20051;-68
2021/04/05 08:46:02;;;;;;;21.10;5.20;;;;;;;;;;5081570;28;20124;-69
2021/04/05 08:48:36;;;;;;;21.15;6.10;;;7.00;60.00;;;;;;5115963;28;20035;-71
2021/04/05 08:51:10;;;;;;;24.88;4.82;;;6.60;60.90;;;;;;5117566;28;20031;-69
2021/04/05 08:53:42;;;;;;;15.15;4.32;;;7.00;61.20;;;;;;5118002;28;20079;-70
2021/04/05 08:56:12;;;;;;;18.58;5.18;;;7.10;60.80;;;;;;5096466;28;20094;-68
2021/04/05 08:58:49;;;;;;;20.98;4.85;;;7.20;59.80;;;;;;5093331;28;20040;-69
2021/04/05 09:01:22;;;;;;;20.30;5.03;;;7.00;60.20;;;;;;5103973;28;20048;-70
2021/04/05 09:03:49;;;;;;;31.80;5.18;;;;;;;;;;5092453;28;20055;-70
2021/04/05 09:06:25;;;;;;;19.95;4.53;;;7.30;58.70;;;;;;5103348;28;20093;-67
2021/04/05 09:08:53;;;;;;;24.13;4.80;;;7.30;58.60;;;;;;5103487;28;20043;-69
2021/04/05 09:11:21;;;;;;;16.45;4.60;;;;;;;;;;5105460;28;20133;-69
2021/04/05 09:13:50;;;;;;;18.98;4.88;;;6.90;60.90;;;;;;5103658;28;20446;-69
2021/04/05 09:16:47;;;;;;;16.27;4.57;;;6.80;62.80;;;;;;5089078;28;20055;-69
2021/04/05 09:19:44;;;;;;;19.85;4.63;;;7.10;63.20;;;;;;5097888;28;20395;-68
2021/04/05 09:22:33;;;;;;;18.80;4.70;;;7.50;62.00;;;;;;5103787;28;20521;-68
2021/04/05 09:25:17;;;;;;;17.45;4.78;;;7.50;59.60;;;;;;5088682;28;20048;-69
2021/04/05 09:28:20;;;;;;;14.90;4.50;;;7.60;59.80;;;;;;5100659;28;20455;-67
2021/04/05 09:31:08;;;;;;;14.73;4.90;;;7.50;60.60;;;;;;5098557;28;20512;-67
2021/04/05 09:34:18;;;;;;;15.35;5.18;;;7.60;58.10;;;;;;5099197;28;20574;-69
2021/04/05 09:37:17;;;;;;;13.75;4.05;;;7.80;56.00;;;;;;5107449;28;20978;-68
2021/04/05 09:40:17;;;;;;;10.32;3.80;;;7.40;56.60;;;;;;5025917;28;20045;-70
2021/04/05 09:43:19;;;;;;;13.15;4.00;;;7.30;54.70;;;;;;5027723;28;20526;-69
2021/04/05 09:45:55;;;;;;;11.63;3.58;;;7.20;56.30;;;;;;5030847;28;20083;-70
2021/04/05 09:48:43;;;;;;;9.50;3.80;;;7.00;56.70;;;;;;5031244;28;20056;-69
2021/04/05 09:51:32;;;;;;;17.35;4.72;;;6.90;56.00;;;;;;5029928;28;20502;-68
2021/04/05 09:54:24;;;;;;;8.23;3.72;;;7.10;56.80;;;;;;5030557;28;20137;-69
2021/04/05 09:56:58;;;;;;;8.57;3.40;;;6.30;59.40;;;;;;5010603;28;20078;-66
2021/04/05 09:59:55;;;;;;;9.18;4.10;;;5.00;66.70;;;;;;5024381;28;20135;-67
2021/04/05 10:02:35;;;;;;;4.95;3.60;;;5.00;67.00;;;;;;5031015;28;20062;-69
2021/04/05 10:05:03;;;;;;;4.90;3.38;;;5.50;61.90;;;;;;5030829;28;20041;-70
2021/04/05 10:07:31;;;;;;;5.82;3.65;;;6.00;58.30;;;;;;5000993;28;20046;-69
2021/04/05 10:10:01;;;;;;;11.00;3.88;;;6.30;55.50;;;;;;5015846;28;20076;-70
2021/04/05 10:12:29;;;;;;;6.00;3.63;;;6.50;52.90;;;;;;5030783;28;20061;-69
2021/04/05 10:15:02;;;;;;;7.95;3.70;;;6.70;53.40;;;;;;5022084;28;20460;-70
2021/04/05 10:17:29;;;;;;;13.27;4.00;;;6.80;51.40;;;;;;5106850;28;20065;-70
2021/04/05 10:19:57;;;;;;;12.90;4.03;;;7.30;53.50;;;;;;5074933;28;20056;-70
2021/04/05 10:22:25;;;;;;;7.85;4.10;;;;;;;;;;5113638;28;20104;-69
2021/04/05 10:24:58;;;;;;;9.30;3.60;;;7.50;49.60;;;;;;5113251;28;20550;-68
2021/04/05 10:27:26;;;;;;;8.00;3.55;;;7.60;52.20;;;;;;5113413;28;20035;-70
2021/04/05 10:29:56;;;;;;;9.55;3.55;;;8.00;51.60;;;;;;5113064;28;20044;-68
2021/04/05 10:32:25;;;;;;;10.23;3.80;;;8.00;50.00;;;;;;5113041;28;20039;-70
2021/04/05 10:34:55;;;;;;;9.40;3.92;;;8.10;48.60;;;;;;5062515;28;20102;-68
2021/04/05 10:37:33;;;;;;;9.93;3.42;;;8.00;47.00;;;;;;5109277;28;20529;-68
2021/04/05 10:40:00;;;;;;;12.05;3.97;;;;;;;;;;5113451;28;20042;-70
2021/04/05 10:42:33;;;;;;;19.45;4.55;;;7.80;47.00;;;;;;5092723;28;20126;-69
2021/04/05 10:45:10;;;;;;;12.38;3.92;;;7.70;48.70;;;;;;5098217;28;20047;-70
2021/04/05 10:47:56;;;;;;;11.07;3.97;;;7.60;49.00;;;;;;4393824;28;10000689;-68
2021/04/05 10:50:29;;;;;;;12.38;4.68;;;7.40;48.60;;;;;;5110902;28;20043;-69
2021/04/05 10:53:04;;;;;;;10.05;3.85;;;7.10;50.30;;;;;;5075135;28;20056;-71
2021/04/05 10:55:35;;;;;;;9.27;3.67;;;7.30;50.00;;;;;;5110122;28;20051;-69
2021/04/05 10:58:04;;;;;;;9.63;3.65;;;7.50;50.10;;;;;;5103786;28;20063;-67
2021/04/05 11:00:36;;;;;;;17.80;5.30;;;6.90;50.90;;;;;;5101926;28;20056;-69
2021/04/05 11:03:10;;;;;;;17.77;4.85;;;6.00;59.20;;;;;;5074416;28;20689;-68
2021/04/05 11:05:38;;;;;;;15.57;4.95;;;6.10;59.50;;;;;;5110257;28;20050;-68
2021/04/05 11:08:06;;;;;;;18.42;5.18;;;;;;;;;;5109051;28;20811;-69
2021/04/05 11:10:37;;;;;;;23.33;4.43;;;6.40;56.30;;;;;;5097032;28;20124;-70
2021/04/05 11:13:16;;;;;;;21.23;5.38;;;6.70;52.20;;;;;;5109566;28;20048;-70
2021/04/05 11:15:44;;;;;;;10.73;4.10;;;7.00;43.70;;;;;;5085452;28;20075;-68
2021/04/05 11:18:16;;;;;;;11.73;3.92;;;7.60;45.00;;;;;;5110121;28;20047;-67
2021/04/05 11:20:47;;;;;;;16.60;3.80;;;8.20;41.40;;;;;;5110141;28;20621;-70
2021/04/05 11:23:22;;;;;;;10.65;4.07;;;7.90;40.70;;;;;;5091582;28;20074;-71
2021/04/05 11:25:52;;;;;;;8.95;3.60;;;8.20;40.50;;;;;;5084003;28;20485;-70
2021/04/05 11:28:25;;;;;;;18.98;4.13;;;8.00;40.30;;;;;;5109463;28;20048;-69
2021/04/05 11:31:07;;;;;;;13.45;4.40;;;7.50;42.20;;;;;;5082463;28;20051;-71
2021/04/05 11:33:39;;;;;;;17.55;4.38;;;7.20;45.70;;;;;;5109360;28;20039;-69
2021/04/05 11:36:07;;;;;;;18.15;4.85;;;7.10;45.40;;;;;;5083242;28;20150;-69
2021/04/05 11:38:42;;;;;;;14.07;4.18;;;7.20;42.60;;;;;;5098621;28;20044;-69
2021/04/05 11:41:14;;;;;;;13.75;4.78;;;7.50;40.90;;;;;;5109152;28;20407;-70
2021/04/05 11:43:47;;;;;;;14.50;3.70;;;8.10;38.90;;;;;;5090157;28;20043;-68
2021/04/05 11:46:16;;;;;;;10.60;4.05;;;8.40;37.10;;;;;;5107204;28;20035;-69
2021/04/05 11:48:59;;;;;;;13.48;3.95;;;8.50;36.70;;;;;;5098720;28;20043;-69
2021/04/05 11:51:32;;;;;;;8.55;3.75;;;8.20;36.90;;;;;;5109156;28;20150;-69
2021/04/05 11:54:01;;;;;;;11.57;3.67;;;7.90;38.30;;;;;;5109045;28;20092;-67
2021/04/05 11:56:32;;;;;;;9.05;3.30;;;8.10;38.90;;;;;;5108851;28;20501;-69
2021/04/05 11:59:21;;;;;;;6.40;3.50;;;8.40;37.40;;;;;;5108792;28;20044;-67
2021/04/05 12:01:57;;;;;;;21.58;3.83;;;8.70;36.60;;;;;;5085526;28;20040;-67
2021/04/05 12:04:31;;;;;;;11.68;3.75;;;8.70;37.00;;;;;;5101732;28;20126;-68
2021/04/05 12:07:11;;;;;;;8.85;3.40;;;8.80;37.00;;;;;;5090249;28;20043;-69
2021/04/05 12:09:43;;;;;;;13.43;3.97;;;8.20;37.40;;;;;;5107627;28;20044;-68
2021/04/05 12:12:21;;;;;;;14.23;3.90;;;8.10;38.00;;;;;;5081185;28;20493;-68
2021/04/05 12:14:56;;;;;;;10.15;4.00;;;8.30;36.60;;;;;;5098385;28;20040;-69
2021/04/05 12:17:23;;;;;;;8.27;3.67;;;8.20;37.30;;;;;;5090475;28;20052;-66
2021/04/05 12:19:54;;;;;;;13.85;3.97;;;8.40;34.90;;;;;;5109136;28;20043;-67
2021/04/05 12:22:28;;;;;;;8.88;3.40;;;8.50;32.60;;;;;;5108699;28;20052;-68
2021/04/05 12:25:01;;;;;;;14.25;4.78;;;8.70;34.50;;;;;;5094758;28;20155;-67
2021/04/05 12:27:31;;;;;;;10.45;3.60;;;9.10;35.70;;;;;;5095348;28;20052;-69
2021/04/05 12:30:01;;;;;;;14.25;3.50;;;8.60;38.50;;;;;;5090356;28;20517;-68
2021/04/05 12:32:30;;;;;;;10.45;4.32;;;7.90;40.10;;;;;;5108913;28;20048;-69
2021/04/05 12:35:03;;;;;;;9.10;3.60;;;7.10;42.80;;;;;;5102724;28;20111;-67
2021/04/05 12:37:31;;;;;;;6.30;3.25;;;6.60;47.20;;;;;;5107625;28;20112;-70
2021/04/05 12:40:02;;;;;;;11.52;3.90;;;6.50;48.50;;;;;;5080565;28;20052;-66
2021/04/05 12:42:34;;;;;;;12.55;3.35;;;6.90;47.00;;;;;;5103671;28;20051;-68
2021/04/05 12:45:03;;;;;;;9.05;3.25;;;7.10;46.10;;;;;;5098283;28;20464;-66
2021/04/05 12:47:33;;;;;;;8.43;3.60;;;7.00;47.10;;;;;;5096417;28;20052;-67
2021/04/05 12:50:09;;;;;;;6.22;3.22;;;7.30;45.60;;;;;;5071510;28;20046;-67
2021/04/05 12:52:39;;;;;;;9.10;3.75;;;7.60;43.10;;;;;;5086401;28;20135;-67
2021/04/05 12:55:18;;;;;;;9.02;3.20;;;7.70;44.00;;;;;;5090552;28;20067;-68
2021/04/05 12:57:46;;;;;;;17.02;5.43;;;;;;;;;;5076881;28;20509;-66
2021/04/05 13:00:13;;;;;;;11.98;4.25;;;;;;;;;;5087844;28;20071;-68
2021/04/05 13:02:41;;;;;;;8.20;3.45;;;;;;;;;;5085731;28;20087;-69
2021/04/05 13:05:39;;;;;;;13.85;3.85;;;5.20;65.40;;;;;;5084058;28;20083;-67
2021/04/05 13:08:44;;;;;;;13.85;3.97;;;5.30;68.00;;;;;;5077850;28;20112;-67
2021/04/05 13:11:35;;;;;;;14.18;4.53;;;6.00;68.90;;;;;;5081108;28;20044;-69
2021/04/05 13:14:17;;;;;;;21.88;5.25;;;6.60;65.70;;;;;;5079531;28;20047;-66
2021/04/05 13:17:09;;;;;;;13.85;4.63;;;7.20;63.80;;;;;;5078172;28;20131;-68
2021/04/05 13:19:44;;;;;;;13.73;4.10;;;7.80;58.50;;;;;;5081612;28;20052;-68
2021/04/05 13:22:15;;;;;;;13.05;4.53;;;8.00;54.00;;;;;;5071824;28;20057;-68
2021/04/05 13:24:49;;;;;;;14.70;4.20;;;8.10;51.70;;;;;;5066561;28;20512;-65
2021/04/05 13:27:25;;;;;;;6.63;3.50;;;8.40;49.10;;;;;;5068645;28;20121;-67
2021/04/05 13:29:53;;;;;;;10.68;3.42;;;8.40;45.00;;;;;;5058916;28;20041;-66
2021/04/05 13:32:24;;;;;;;7.15;3.20;;;;;;;;;;5067883;28;20135;-65
2021/04/05 13:34:59;;;;;;;13.40;3.55;;;8.60;38.90;;;;;;5069584;28;20060;-68
2021/04/05 13:37:28;;;;;;;10.85;3.38;;;8.30;37.90;;;;;;5068440;28;20110;-68
2021/04/05 13:39:55;;;;;;;7.80;3.20;;;;;;;;;;5070039;28;20051;-69